Time;durP1;ratioP1;P1;durP2;ratioP2;P2;SDS_P1;SDS_P2;PMS_P1;PMS_P2;Temp;Humidity;BMP_temperature;BMP_pressure;BME280_temperature;BME280_humidity;BME280_pressure;Samples;Min_cycle;Max_cycle;Signal;HPM_P1;HPM_P2
2022/05/10 00:03:12;;;;;;;9.60;4.17;;;10.80;87.80;;;;;;10486411;28;20032;-89
2022/05/10 00:08:15;;;;;;;9.80;4.47;;;10.50;87.90;;;;;;10490744;28;20028;-90
2022/05/10 00:13:17;;;;;;;7.23;3.97;;;10.40;88.50;;;;;;10486571;28;20138;-90
2022/05/10 00:18:20;;;;;;;6.23;4.10;;;10.30;89.40;;;;;;10488501;28;20032;-92
2022/05/10 00:23:20;;;;;;;6.90;3.43;;;10.10;90.50;;;;;;10471566;28;20652;-92
2022/05/10 00:28:21;;;;;;;7.40;4.03;;;9.90;90.90;;;;;;10471027;28;20031;-90
2022/05/10 00:33:28;;;;;;;6.83;3.70;;;9.90;90.80;;;;;;10469755;28;20045;-91
2022/05/10 00:38:32;;;;;;;7.30;3.80;;;9.80;91.00;;;;;;10442490;28;20503;-89
2022/05/10 00:43:41;;;;;;;6.10;3.70;;;9.80;90.50;;;;;;10473789;28;20400;-90
2022/05/10 00:49:13;;;;;;;7.40;4.03;;;9.80;90.20;;;;;;10475828;28;20044;-88
2022/05/10 00:54:32;;;;;;;6.57;3.70;;;9.80;88.70;;;;;;10460929;28;20044;-90
2022/05/10 00:59:43;;;;;;;7.07;3.63;;;9.80;88.60;;;;;;10462638;28;20032;-89
2022/05/10 01:04:51;;;;;;;4.20;3.07;;;9.80;87.40;;;;;;10466875;28;20052;-91
2022/05/10 01:10:01;;;;;;;6.33;3.17;;;9.90;86.30;;;;;;10451125;28;20474;-88
2022/05/10 01:15:10;;;;;;;6.90;3.00;;;9.90;86.00;;;;;;10474424;28;20041;-90
2022/05/10 01:20:24;;;;;;;5.23;3.17;;;9.90;86.00;;;;;;10456276;28;20036;-90
2022/05/10 01:25:37;;;;;;;5.67;3.30;;;9.80;87.20;;;;;;10486105;28;20036;-88
2022/05/10 01:30:38;;;;;;;5.90;3.10;;;9.60;88.60;;;;;;10475074;28;20047;-89
2022/05/10 01:35:51;;;;;;;6.03;2.77;;;9.40;89.50;;;;;;10445918;28;20041;-90
2022/05/10 01:41:00;;;;;;;7.53;3.27;;;9.20;90.20;;;;;;10466587;28;20032;-89
2022/05/10 01:46:10;;;;;;;6.90;3.23;;;9.10;90.00;;;;;;10465000;28;20032;-89
2022/05/10 01:51:27;;;;;;;10.13;3.43;;;9.00;90.30;;;;;;10462128;28;20048;-89
2022/05/10 01:56:29;;;;;;;6.37;3.10;;;9.00;90.80;;;;;;10465111;28;20025;-89
2022/05/10 02:01:39;;;;;;;6.60;3.00;;;9.00;88.70;;;;;;10467694;28;20078;-88
2022/05/10 02:06:48;;;;;;;6.87;3.10;;;9.20;87.80;;;;;;10474855;28;20025;-89
2022/05/10 02:12:18;;;;;;;4.40;2.60;;;9.30;86.00;;;;;;10474356;28;20568;-91
2022/05/10 02:17:39;;;;;;;7.10;2.97;;;9.30;84.90;;;;;;10457517;28;20128;-90
2022/05/10 02:22:46;;;;;;;6.83;2.33;;;9.30;83.90;;;;;;10434871;28;20056;-89
2022/05/10 02:28:20;;;;;;;4.90;2.30;;;9.40;83.30;;;;;;10448975;28;20623;-88
2022/05/10 02:33:21;;;;;;;4.57;2.33;;;9.30;83.50;;;;;;10415941;28;20045;-89
2022/05/10 02:38:25;;;;;;;5.90;2.47;;;9.40;82.30;;;;;;10469746;28;20031;-89
2022/05/10 02:43:29;;;;;;;4.50;2.83;;;9.40;82.80;;;;;;10461529;28;20419;-88
2022/05/10 02:48:35;;;;;;;6.23;2.50;;;9.30;82.30;;;;;;10487204;28;20028;-89
2022/05/10 02:53:36;;;;;;;;;;;9.20;83.20;;;;;;10466189;28;20048;-88
2022/05/10 02:58:42;;;;;;;7.77;2.40;;;9.00;82.70;;;;;;10460962;28;19913;-90
2022/05/10 03:03:42;;;;;;;;;;;8.90;82.80;;;;;;10460125;28;20039;-89
2022/05/10 03:08:44;;;;;;;6.10;2.70;;;9.00;81.00;;;;;;10460178;28;19916;-86
2022/05/10 03:13:47;;;;;;;7.60;2.63;;;9.10;82.40;;;;;;10480162;28;20041;-87
2022/05/10 03:18:48;;;;;;;3.70;2.43;;;9.00;82.60;;;;;;10471643;28;20029;-88
2022/05/10 03:23:50;;;;;;;5.27;2.27;;;8.90;83.30;;;;;;10488657;28;20055;-88
2022/05/10 03:28:51;;;;;;;5.13;2.30;;;8.70;83.50;;;;;;10472247;28;20223;-87
2022/05/10 03:39:11;;;;;;;7.27;2.47;;;8.50;86.90;;;;;;10478971;28;20044;-88
2022/05/10 03:44:12;;;;;;;4.23;2.60;;;8.30;89.50;;;;;;10459134;28;20024;-89
2022/05/10 03:49:14;;;;;;;4.10;2.47;;;8.10;90.00;;;;;;10471993;28;20084;-86
2022/05/10 03:54:15;;;;;;;5.00;2.50;;;8.10;90.60;;;;;;10488066;28;20036;-91
2022/05/10 03:59:17;;;;;;;5.03;2.53;;;8.00;91.30;;;;;;10457316;28;20017;-88
2022/05/10 04:04:18;;;;;;;6.27;2.60;;;8.00;91.50;;;;;;10476623;28;20020;-87
2022/05/10 04:09:18;;;;;;;4.40;2.30;;;8.00;92.20;;;;;;10477702;28;20101;-88
2022/05/10 04:14:19;;;;;;;4.70;2.27;;;8.10;91.90;;;;;;10482482;28;20017;-86
2022/05/10 04:19:20;;;;;;;4.47;1.97;;;8.20;91.90;;;;;;10486630;28;20043;-86
2022/05/10 04:24:20;;;;;;;3.27;1.90;;;8.40;90.90;;;;;;10469253;28;20140;-86
2022/05/10 04:29:21;;;;;;;4.60;2.27;;;8.60;90.40;;;;;;10486026;28;20457;-88
2022/05/10 04:34:21;;;;;;;3.87;2.07;;;8.80;91.90;;;;;;10471491;28;20105;-87
2022/05/10 04:39:22;;;;;;;2.80;1.90;;;8.80;92.90;;;;;;10451441;28;20033;-86
2022/05/10 04:44:23;;;;;;;5.43;2.67;;;8.90;93.40;;;;;;10465060;28;20403;-88
2022/05/10 04:49:23;;;;;;;5.27;2.37;;;9.10;93.20;;;;;;10454811;28;20051;-86
2022/05/10 04:54:24;;;;;;;7.83;2.73;;;9.30;93.60;;;;;;10453971;28;20033;-88
2022/05/10 04:59:25;;;;;;;5.57;2.50;;;9.40;93.80;;;;;;10453773;28;20075;-86
2022/05/10 05:04:25;;;;;;;6.03;2.50;;;9.60;93.40;;;;;;10476420;28;20078;-88
2022/05/10 05:09:26;;;;;;;8.27;3.93;;;9.80;94.30;;;;;;10494225;28;20075;-87
2022/05/10 05:14:26;;;;;;;7.63;4.10;;;10.00;93.40;;;;;;10494902;28;20025;-87
2022/05/10 05:19:27;;;;;;;8.07;3.93;;;10.20;93.20;;;;;;10471375;28;20100;-87
2022/05/10 05:24:28;;;;;;;9.75;5.10;;;10.50;92.40;;;;;;10452854;28;20517;-88
2022/05/10 05:29:29;;;;;;;12.10;4.68;;;10.60;91.10;;;;;;10459483;28;20052;-87
2022/05/10 05:34:30;;;;;;;11.82;5.50;;;10.90;88.90;;;;;;10472921;28;20040;-88
2022/05/10 05:39:30;;;;;;;11.65;5.00;;;11.30;87.80;;;;;;10480700;28;20029;-86
2022/05/10 05:44:31;;;;;;;14.70;4.53;;;11.50;89.20;;;;;;10479240;28;20032;-88
2022/05/10 05:49:32;;;;;;;16.30;5.72;;;11.80;86.90;;;;;;10460944;28;20044;-85
2022/05/10 05:54:33;;;;;;;16.00;5.97;;;12.10;82.10;;;;;;10480314;28;20032;-86
2022/05/10 05:59:34;;;;;;;23.63;6.07;;;12.50;79.80;;;;;;10444038;28;20059;-87
2022/05/10 06:04:36;;;;;;;17.40;6.03;;;12.80;80.70;;;;;;10459629;28;20393;-89
2022/05/10 06:09:37;;;;;;;15.05;4.95;;;13.00;78.40;;;;;;10439550;28;20036;-86
2022/05/10 06:14:39;;;;;;;16.95;6.55;;;13.30;80.00;;;;;;10457111;28;20036;-87
2022/05/10 06:19:41;;;;;;;22.08;7.95;;;13.50;78.70;;;;;;10473841;28;20377;-86
2022/05/10 06:24:42;;;;;;;25.58;8.45;;;13.70;77.90;;;;;;10468783;28;20119;-88
2022/05/10 06:29:43;;;;;;;21.13;8.63;;;14.00;76.20;;;;;;10462993;28;20179;-88
2022/05/10 06:34:44;;;;;;;21.33;9.00;;;14.20;74.20;;;;;;10477632;28;20033;-87
2022/05/10 06:39:44;;;;;;;23.77;9.43;;;14.30;72.50;;;;;;10456705;28;20032;-86
2022/05/10 06:44:45;;;;;;;22.90;9.93;;;14.50;75.40;;;;;;10450458;28;20029;-87
2022/05/10 06:49:46;;;;;;;20.08;10.13;;;14.70;73.40;;;;;;10458125;28;20052;-87
2022/05/10 06:54:46;;;;;;;23.42;9.32;;;15.00;73.50;;;;;;10473021;28;20029;-87
2022/05/10 06:59:47;;;;;;;21.92;9.20;;;15.50;73.90;;;;;;10468637;28;20035;-86
2022/05/10 07:04:47;;;;;;;20.52;8.50;;;16.70;71.30;;;;;;10472346;28;20384;-88
2022/05/10 07:09:48;;;;;;;25.52;9.30;;;18.00;67.00;;;;;;10476213;28;20036;-88
2022/05/10 07:14:49;;;;;;;28.92;9.50;;;19.00;64.90;;;;;;10475944;28;20032;-87
2022/05/10 07:19:50;;;;;;;24.33;9.40;;;19.50;63.40;;;;;;10474465;28;20031;-87
2022/05/10 07:24:51;;;;;;;19.45;9.02;;;20.00;61.40;;;;;;10476212;28;20063;-87
2022/05/10 07:29:52;;;;;;;21.40;9.50;;;20.20;61.60;;;;;;10472640;28;20100;-88
2022/05/10 07:34:53;;;;;;;27.30;9.90;;;20.10;65.40;;;;;;10470130;28;20017;-89
2022/05/10 07:39:54;;;;;;;22.05;10.70;;;20.10;62.30;;;;;;10462365;28;20649;-87
2022/05/10 07:44:55;;;;;;;29.30;11.07;;;19.80;64.60;;;;;;10464778;28;20401;-87
2022/05/10 07:49:56;;;;;;;23.50;9.65;;;20.00;62.50;;;;;;10456144;28;20043;-88
2022/05/10 07:54:56;;;;;;;20.90;8.52;;;20.10;62.00;;;;;;10464611;28;20021;-88
2022/05/10 07:59:57;;;;;;;21.52;8.73;;;20.10;64.10;;;;;;10469046;28;20058;-88
2022/05/10 08:04:58;;;;;;;18.65;6.10;;;20.30;63.20;;;;;;10469416;28;20028;-88
2022/05/10 08:09:58;;;;;;;15.55;5.68;;;20.50;60.90;;;;;;10476707;28;20388;-89
2022/05/10 08:14:59;;;;;;;18.33;6.13;;;20.50;60.00;;;;;;10476946;28;20596;-88
2022/05/10 08:19:59;;;;;;;15.07;6.10;;;20.80;62.70;;;;;;10465206;28;20033;-89
2022/05/10 08:25:01;;;;;;;18.30;4.63;;;21.00;61.10;;;;;;10450379;28;20163;-88
2022/05/10 08:30:02;;;;;;;11.80;4.60;;;21.20;63.60;;;;;;10457264;28;20036;-88
2022/05/10 08:35:03;;;;;;;7.82;3.33;;;21.20;60.70;;;;;;10465911;28;20032;-89
2022/05/10 08:40:06;;;;;;;7.03;3.33;;;21.30;58.30;;;;;;10447109;28;20021;-90
2022/05/10 08:45:09;;;;;;;6.05;3.35;;;20.60;59.00;;;;;;10470847;28;20044;-88
2022/05/10 08:50:12;;;;;;;9.23;4.30;;;21.00;58.20;;;;;;10455704;28;20041;-89
2022/05/10 08:55:21;;;;;;;9.50;3.67;;;21.70;58.70;;;;;;10478092;28;20528;-90
2022/05/10 09:00:40;;;;;;;10.35;3.58;;;22.10;57.90;;;;;;10451160;28;20483;-91
2022/05/10 09:05:43;;;;;;;6.57;3.53;;;22.20;56.30;;;;;;10477921;28;20025;-88
2022/05/10 09:10:49;;;;;;;6.57;3.20;;;22.00;56.70;;;;;;10454385;28;20060;-87
2022/05/10 09:15:55;;;;;;;;;;;22.30;57.40;;;;;;10467633;28;20016;-89
2022/05/10 09:21:25;;;;;;;8.43;3.20;;;22.70;56.30;;;;;;10470098;28;19908;-87
2022/05/10 09:26:37;;;;;;;5.38;3.13;;;22.80;55.50;;;;;;10446056;28;20061;-91
2022/05/10 09:37:33;;;;;;;9.55;3.95;;;22.70;55.10;;;;;;10451744;28;20037;-88
2022/05/10 09:42:37;;;;;;;7.35;3.50;;;22.70;53.50;;;;;;10452415;28;20108;-88
2022/05/10 09:47:39;;;;;;;9.98;3.95;;;22.70;54.80;;;;;;10452121;28;20036;-87
2022/05/10 09:52:40;;;;;;;9.05;3.53;;;22.70;54.30;;;;;;10434378;28;20139;-88
2022/05/10 09:57:43;;;;;;;6.85;3.20;;;22.80;56.10;;;;;;10452043;28;20025;-89
2022/05/10 10:02:43;;;;;;;8.75;3.72;;;23.10;55.00;;;;;;10433744;28;20610;-90
2022/05/10 10:07:50;;;;;;;7.93;3.22;;;23.20;52.40;;;;;;10433593;28;20078;-88
2022/05/10 10:12:51;;;;;;;6.93;3.10;;;23.30;53.40;;;;;;10452297;28;20069;-88
2022/05/10 10:18:11;;;;;;;6.72;3.13;;;23.30;54.20;;;;;;10451398;28;20048;-89
2022/05/10 10:23:40;;;;;;;5.13;3.20;;;23.40;53.40;;;;;;10432811;28;20384;-89
2022/05/10 10:28:49;;;;;;;7.55;3.00;;;23.00;48.30;;;;;;10444395;28;20506;-90
2022/05/10 10:34:02;;;;;;;7.57;3.10;;;23.10;51.40;;;;;;10450881;28;20385;-88
2022/05/10 10:39:23;;;;;;;7.00;3.30;;;23.10;50.70;;;;;;10449648;28;20060;-89
2022/05/10 10:44:29;;;;;;;5.38;2.83;;;23.30;49.50;;;;;;10432504;28;20048;-88
2022/05/10 10:49:43;;;;;;;5.93;3.03;;;22.80;49.60;;;;;;10432088;28;20033;-89
2022/05/10 10:54:45;;;;;;;7.70;3.13;;;23.30;49.20;;;;;;10450299;28;20191;-90
2022/05/10 11:00:01;;;;;;;8.15;3.30;;;23.60;47.90;;;;;;10449658;28;20032;-88
2022/05/10 11:05:11;;;;;;;6.55;3.20;;;23.80;48.80;;;;;;10432185;28;20465;-89
2022/05/10 11:10:54;;;;;;;6.25;3.40;;;24.10;51.40;;;;;;10431389;28;20037;-90
2022/05/10 11:16:20;;;;;;;4.78;2.60;;;24.40;48.10;;;;;;10448702;28;20032;-90
2022/05/10 11:21:20;;;;;;;;;;;24.20;51.30;;;;;;10449317;28;20056;-87
2022/05/10 11:26:49;;;;;;;9.05;3.45;;;24.60;51.60;;;;;;10449210;28;20012;-89
2022/05/10 11:32:05;;;;;;;4.13;3.05;;;24.70;49.00;;;;;;10451626;28;20543;-88
2022/05/10 11:37:12;;;;;;;6.93;3.05;;;24.80;48.60;;;;;;10462624;28;20096;-89
2022/05/10 11:42:32;;;;;;;8.15;2.88;;;24.70;50.40;;;;;;10437957;28;20025;-89
2022/05/10 11:47:36;;;;;;;5.95;3.10;;;24.70;47.20;;;;;;10459497;28;20021;-89
2022/05/10 11:52:55;;;;;;;6.35;3.33;;;24.90;47.20;;;;;;10478706;28;20049;-90
2022/05/10 11:58:00;;;;;;;6.80;3.17;;;24.20;45.60;;;;;;10463547;28;20095;-88
2022/05/10 12:03:01;;;;;;;;;;;24.30;48.90;;;;;;10456349;28;20100;-89
2022/05/10 12:08:05;;;;;;;5.10;3.05;;;24.60;49.90;;;;;;10455423;28;20360;-89
2022/05/10 12:24:36;;;;;;;6.25;2.92;;;24.80;48.30;;;;;;10475498;28;20056;-91
2022/05/10 12:29:40;;;;;;;8.93;3.45;;;25.00;46.70;;;;;;10452992;28;20495;-91
2022/05/10 12:34:49;;;;;;;9.77;2.75;;;24.90;47.00;;;;;;10456189;28;20036;-88
2022/05/10 12:40:17;;;;;;;7.68;3.10;;;24.60;48.10;;;;;;10464522;28;20127;-90
2022/05/10 12:45:52;;;;;;;7.50;3.25;;;24.70;48.30;;;;;;10463339;28;20147;-88
2022/05/10 12:51:01;;;;;;;6.13;3.10;;;25.00;48.30;;;;;;10460561;28;20072;-88
2022/05/10 12:56:30;;;;;;;6.35;3.10;;;25.10;47.60;;;;;;10444554;28;20021;-93
2022/05/10 13:01:34;;;;;;;6.72;3.00;;;25.20;46.10;;;;;;10462878;28;20032;-89
2022/05/10 13:06:48;;;;;;;8.88;3.20;;;25.20;44.00;;;;;;10460414;28;20021;-89
2022/05/10 13:11:58;;;;;;;8.65;3.53;;;25.10;46.50;;;;;;10471924;28;20040;-88
2022/05/10 13:17:00;;;;;;;5.88;3.33;;;24.90;42.00;;;;;;10467635;28;20024;-89
2022/05/10 13:22:08;;;;;;;8.70;3.30;;;24.00;44.40;;;;;;10468685;28;20028;-88
2022/05/10 13:27:27;;;;;;;6.13;2.83;;;23.80;45.50;;;;;;10460832;28;20072;-87
2022/05/10 13:32:37;;;;;;;5.60;3.13;;;23.50;47.20;;;;;;10483753;28;20032;-89
2022/05/10 13:37:42;;;;;;;3.85;2.42;;;23.50;48.00;;;;;;10471236;28;20074;-89
2022/05/10 13:42:45;;;;;;;6.60;2.88;;;23.90;48.80;;;;;;10485040;28;20111;-88
2022/05/10 13:47:48;;;;;;;5.28;2.70;;;23.90;45.60;;;;;;10488385;28;20028;-88
2022/05/10 13:52:57;;;;;;;3.63;2.60;;;23.80;49.30;;;;;;10494638;28;20499;-88
2022/05/10 13:58:01;;;;;;;6.82;3.40;;;24.00;48.90;;;;;;10484725;28;20024;-88
2022/05/10 14:03:06;;;;;;;9.65;4.03;;;23.90;49.30;;;;;;10479488;28;20028;-89
2022/05/10 14:08:12;;;;;;;7.63;3.30;;;24.00;48.00;;;;;;10474551;28;20033;-88
2022/05/10 14:13:21;;;;;;;6.13;3.20;;;23.90;45.80;;;;;;10480441;28;20052;-89
2022/05/10 14:18:44;;;;;;;5.30;3.17;;;23.60;46.20;;;;;;10480946;28;20681;-89
2022/05/10 14:23:46;;;;;;;5.57;3.50;;;23.50;48.60;;;;;;10478547;28;20793;-89
2022/05/10 14:28:54;;;;;;;5.38;3.47;;;23.40;49.30;;;;;;10453315;28;20073;-88
2022/05/10 14:33:56;;;;;;;7.70;3.40;;;23.30;47.90;;;;;;10455260;28;20033;-88
2022/05/10 14:38:57;;;;;;;6.90;3.25;;;23.00;50.80;;;;;;10474408;28;20032;-89
2022/05/10 14:43:58;;;;;;;9.07;4.25;;;22.80;47.10;;;;;;10450479;28;20099;-87
2022/05/10 14:49:06;;;;;;;6.57;3.50;;;22.40;48.50;;;;;;10483185;28;20572;-89
2022/05/10 14:54:09;;;;;;;8.73;4.55;;;22.40;50.80;;;;;;10476134;28;20041;-88
2022/05/10 14:59:50;;;;;;;8.63;3.88;;;22.30;50.50;;;;;;10459469;28;20017;-89
2022/05/10 15:05:42;;;;;;;12.23;4.32;;;22.30;49.80;;;;;;10481427;28;20506;-89
2022/05/10 15:16:58;;;;;;;5.57;3.95;;;22.10;50.10;;;;;;10467863;28;20093;-88
2022/05/10 15:21:59;;;;;;;4.90;3.67;;;22.00;52.10;;;;;;10485002;28;20071;-88
2022/05/10 15:27:03;;;;;;;8.48;4.00;;;22.00;51.60;;;;;;10439504;28;20168;-89
2022/05/10 15:32:09;;;;;;;8.05;3.75;;;22.00;49.80;;;;;;10430855;28;20086;-89
2022/05/10 15:37:21;;;;;;;6.18;3.42;;;21.90;50.90;;;;;;10424222;28;20747;-89
2022/05/10 15:42:30;;;;;;;8.63;3.35;;;21.90;51.90;;;;;;10415815;28;20030;-89
2022/05/10 15:47:35;;;;;;;7.93;3.40;;;21.80;53.30;;;;;;10426410;28;20033;-85
2022/05/10 15:52:36;;;;;;;5.40;3.25;;;21.80;53.60;;;;;;10431749;28;20029;-87
2022/05/10 15:57:37;;;;;;;8.60;4.00;;;21.80;53.40;;;;;;10445043;28;20025;-87
2022/05/10 16:02:37;;;;;;;7.75;3.80;;;21.70;53.10;;;;;;10443488;28;20025;-88
2022/05/10 16:07:38;;;;;;;5.32;3.47;;;21.70;52.00;;;;;;10444287;28;20024;-88
2022/05/10 16:12:39;;;;;;;6.50;3.40;;;21.60;51.50;;;;;;10429404;28;20572;-89
2022/05/10 16:17:40;;;;;;;9.35;3.50;;;21.50;51.40;;;;;;10435700;28;20517;-88
2022/05/10 16:22:41;;;;;;;5.47;3.65;;;21.50;50.40;;;;;;10441283;28;20032;-88
2022/05/10 16:33:04;;;;;;;5.78;3.50;;;21.30;51.10;;;;;;10479327;28;20644;-86
2022/05/10 16:38:07;;;;;;;6.10;3.50;;;21.20;50.40;;;;;;10491715;28;20028;-87
2022/05/10 16:43:07;;;;;;;5.82;3.03;;;21.10;51.10;;;;;;10491395;28;20051;-88
2022/05/10 16:48:08;;;;;;;9.65;3.40;;;20.90;51.90;;;;;;10474976;28;20097;-87
2022/05/10 16:53:10;;;;;;;6.50;3.15;;;20.80;53.00;;;;;;10478763;28;20032;-86
2022/05/10 16:58:10;;;;;;;5.30;3.28;;;20.70;53.20;;;;;;10486719;28;20044;-88
2022/05/10 17:03:11;;;;;;;5.57;2.92;;;20.50;56.90;;;;;;10470405;28;20024;-87
2022/05/10 17:08:12;;;;;;;6.50;2.90;;;20.10;57.40;;;;;;10481902;28;20056;-88
2022/05/10 17:13:12;;;;;;;6.78;3.47;;;19.80;58.20;;;;;;10494687;28;20102;-88
2022/05/10 17:18:14;;;;;;;6.55;3.17;;;19.50;59.00;;;;;;10475421;28;20028;-89
2022/05/10 17:23:15;;;;;;;5.63;3.00;;;19.20;59.20;;;;;;10477115;28;20099;-87
2022/05/10 17:33:17;;;;;;;6.47;3.20;;;18.40;60.60;;;;;;10492247;28;20049;-88
2022/05/10 17:38:17;;;;;;;8.13;2.92;;;18.20;59.00;;;;;;10492277;28;20390;-87
2022/05/10 17:43:18;;;;;;;6.10;3.25;;;17.80;60.00;;;;;;10474607;28;20030;-88
2022/05/10 17:48:19;;;;;;;5.35;2.75;;;17.60;60.90;;;;;;10483657;28;20027;-87
2022/05/10 17:53:19;;;;;;;5.10;3.13;;;17.40;61.40;;;;;;10492410;28;20062;-86
2022/05/10 17:58:20;;;;;;;6.43;3.80;;;17.10;61.60;;;;;;10475752;28;20038;-85
2022/05/10 18:03:21;;;;;;;8.02;3.63;;;16.80;62.50;;;;;;10485217;28;20454;-88
2022/05/10 18:08:22;;;;;;;6.90;3.65;;;16.60;63.90;;;;;;10476302;28;20029;-86
2022/05/10 18:13:22;;;;;;;7.00;3.80;;;16.30;64.50;;;;;;10485158;28;20395;-87
2022/05/10 18:18:24;;;;;;;6.80;3.80;;;16.10;65.10;;;;;;10478375;28;20037;-87
2022/05/10 18:23:25;;;;;;;5.40;3.40;;;16.00;65.30;;;;;;10483697;28;20025;-86
2022/05/10 18:28:27;;;;;;;6.45;3.58;;;15.80;65.60;;;;;;10483810;28;20059;-85
2022/05/10 18:33:28;;;;;;;8.18;3.88;;;15.50;66.00;;;;;;10489890;28;20040;-84
2022/05/10 18:38:29;;;;;;;77.13;39.30;;;15.40;66.50;;;;;;10487453;28;20500;-84
2022/05/10 18:43:30;;;;;;;46.10;23.00;;;15.10;66.80;;;;;;10479550;28;20063;-85
2022/05/10 18:48:32;;;;;;;64.43;30.05;;;15.00;69.50;;;;;;10481392;28;20507;-85
2022/05/10 18:53:33;;;;;;;62.58;30.88;;;14.80;70.00;;;;;;10478211;28;20067;-88
2022/05/10 18:58:33;;;;;;;61.08;28.60;;;14.60;71.00;;;;;;10488547;28;20116;-86
2022/05/10 19:03:34;;;;;;;35.17;17.42;;;14.50;70.70;;;;;;10472568;28;20043;-87
2022/05/10 19:08:36;;;;;;;27.73;14.70;;;14.40;69.80;;;;;;10483119;28;20032;-86
2022/05/10 19:13:38;;;;;;;23.25;10.90;;;14.40;70.60;;;;;;10470722;28;20384;-86
2022/05/10 19:18:39;;;;;;;40.25;21.55;;;14.30;70.00;;;;;;10469565;28;20103;-89
2022/05/10 19:23:40;;;;;;;34.90;16.27;;;14.30;72.80;;;;;;10448947;28;20060;-90
2022/05/10 19:28:44;;;;;;;27.33;12.68;;;14.30;72.60;;;;;;10463081;28;20094;-89
2022/05/10 19:33:45;;;;;;;20.75;10.48;;;14.00;73.40;;;;;;10449035;28;20123;-89
2022/05/10 19:38:47;;;;;;;18.58;9.05;;;14.00;72.80;;;;;;10462841;28;20109;-86
2022/05/10 19:43:47;;;;;;;22.42;10.07;;;14.00;73.20;;;;;;10439009;28;20039;-89
2022/05/10 19:48:48;;;;;;;18.55;7.68;;;13.90;75.10;;;;;;10452832;28;20373;-89
2022/05/10 19:53:49;;;;;;;24.48;12.38;;;13.70;73.50;;;;;;10437581;28;20055;-88
2022/05/10 19:58:51;;;;;;;25.70;12.80;;;13.70;73.30;;;;;;10448312;28;20020;-87
2022/05/10 20:09:12;;;;;;;15.05;8.88;;;13.70;74.60;;;;;;10475387;28;20412;-88
2022/05/10 20:14:13;;;;;;;12.38;7.05;;;13.60;75.80;;;;;;10489038;28;20037;-86
2022/05/10 20:19:13;;;;;;;13.82;7.10;;;13.50;76.00;;;;;;10478860;28;20490;-87
2022/05/10 20:24:14;;;;;;;17.83;7.72;;;13.30;76.60;;;;;;10479325;28;20053;-87
2022/05/10 20:29:16;;;;;;;13.07;7.05;;;13.20;76.30;;;;;;10468079;28;20044;-87
2022/05/10 20:34:17;;;;;;;13.23;7.65;;;13.10;76.00;;;;;;10488437;28;20053;-88
2022/05/10 20:39:17;;;;;;;15.93;8.18;;;13.10;75.90;;;;;;10488827;28;20031;-87
2022/05/10 20:44:18;;;;;;;18.50;9.30;;;13.00;77.00;;;;;;10488727;28;20039;-88
2022/05/10 20:49:19;;;;;;;22.75;12.30;;;12.90;76.60;;;;;;10486937;28;20060;-87
2022/05/10 20:54:20;;;;;;;26.98;16.38;;;12.90;76.70;;;;;;10475542;28;20135;-89
2022/05/10 20:59:21;;;;;;;22.67;11.35;;;12.80;77.00;;;;;;10488880;28;20495;-87
2022/05/10 21:04:21;;;;;;;19.45;9.82;;;12.80;76.60;;;;;;10480374;28;20032;-88
2022/05/10 21:09:22;;;;;;;15.52;8.77;;;12.70;76.70;;;;;;10488468;28;20028;-86
2022/05/10 21:14:23;;;;;;;12.57;7.30;;;12.60;76.60;;;;;;10487971;28;20055;-87
2022/05/10 21:19:23;;;;;;;12.75;6.18;;;12.60;75.90;;;;;;10487905;28;20020;-87
2022/05/10 21:24:24;;;;;;;14.20;6.75;;;12.50;75.80;;;;;;10495372;28;20052;-88
2022/05/10 21:34:44;;;;;;;11.95;6.57;;;12.30;76.50;;;;;;10495176;28;20036;-86
2022/05/10 21:39:45;;;;;;;14.85;6.65;;;12.20;76.90;;;;;;10494080;28;20040;-88
2022/05/10 21:44:45;;;;;;;15.70;7.28;;;12.20;76.30;;;;;;10477760;28;20375;-86
2022/05/10 21:49:46;;;;;;;14.10;6.57;;;12.20;77.80;;;;;;10493706;28;20024;-86
2022/05/10 21:54:46;;;;;;;12.02;7.07;;;12.20;77.70;;;;;;10494768;28;20025;-88
2022/05/10 21:59:47;;;;;;;14.77;6.82;;;12.20;77.10;;;;;;10478808;28;20028;-87
2022/05/10 22:04:48;;;;;;;12.10;6.50;;;12.20;77.20;;;;;;10489235;28;20036;-86
2022/05/10 22:09:49;;;;;;;12.40;6.88;;;12.20;77.10;;;;;;10476223;28;20429;-88
2022/05/10 22:14:50;;;;;;;10.93;6.53;;;12.20;77.30;;;;;;10493248;28;20038;-86
2022/05/10 22:19:50;;;;;;;11.65;6.53;;;12.10;77.60;;;;;;10489454;28;20029;-87
2022/05/10 22:24:51;;;;;;;10.40;6.22;;;12.00;77.60;;;;;;10475280;28;20072;-87
2022/05/10 22:29:52;;;;;;;11.88;7.13;;;12.00;77.70;;;;;;10492713;28;20070;-86
2022/05/10 22:34:52;;;;;;;16.15;7.18;;;12.00;78.90;;;;;;10489218;28;20047;-87
2022/05/10 22:39:53;;;;;;;12.07;6.68;;;11.90;78.90;;;;;;10471250;28;20037;-86
2022/05/10 22:44:54;;;;;;;14.02;6.95;;;11.90;78.90;;;;;;10435602;28;20033;-87
2022/05/10 22:49:57;;;;;;;12.02;6.50;;;11.80;79.60;;;;;;10483140;28;20032;-87
2022/05/10 22:54:57;;;;;;;12.13;7.07;;;11.80;79.50;;;;;;10474582;28;20036;-88
2022/05/10 22:59:58;;;;;;;10.82;6.25;;;11.70;79.50;;;;;;10474448;28;20452;-87
2022/05/10 23:04:58;;;;;;;12.60;7.15;;;11.60;79.90;;;;;;10491223;28;20373;-88
2022/05/10 23:09:59;;;;;;;15.88;6.75;;;11.60;80.10;;;;;;10491302;28;20106;-87
2022/05/10 23:15:00;;;;;;;13.50;7.05;;;11.50;80.50;;;;;;10491954;28;20162;-87
2022/05/10 23:20:00;;;;;;;14.40;7.53;;;11.40;81.70;;;;;;10469183;28;20708;-87
2022/05/10 23:25:01;;;;;;;12.95;6.65;;;11.30;81.30;;;;;;10473131;28;20053;-87
2022/05/10 23:30:03;;;;;;;12.23;7.53;;;11.30;81.80;;;;;;10472381;28;20036;-86
2022/05/10 23:35:06;;;;;;;17.63;7.55;;;11.40;82.50;;;;;;10472962;28;20020;-85
2022/05/10 23:40:09;;;;;;;14.68;7.13;;;11.30;82.80;;;;;;10490482;28;20403;-87
2022/05/10 23:45:10;;;;;;;14.18;7.38;;;11.30;83.10;;;;;;10489314;28;20037;-87
2022/05/10 23:50:10;;;;;;;13.88;7.47;;;11.30;83.60;;;;;;10488666;28;20063;-87
2022/05/10 23:55:12;;;;;;;12.85;7.03;;;11.20;84.10;;;;;;10471933;28;20040;-86
